sensor_id;sensor_type;location;lat;lon;timestamp;P1;durP1;ratioP1;P2;durP2;ratioP2
8219;SDS011;4151;51.110;7.020;2024-01-15T00:00:42;39.00;;;15.03;;
8219;SDS011;4151;51.110;7.020;2024-01-15T00:03:07;44.50;;;15.47;;
8219;SDS011;4151;51.110;7.020;2024-01-15T00:05:34;51.57;;;17.00;;
8219;SDS011;4151;51.110;7.020;2024-01-15T00:08:00;46.63;;;17.23;;
8219;SDS011;4151;51.110;7.020;2024-01-15T00:10:25;47.00;;;17.97;;
8219;SDS011;4151;51.110;7.020;2024-01-15T00:12:51;46.27;;;15.10;;
8219;SDS011;4151;51.110;7.020;2024-01-15T00:15:16;44.83;;;17.73;;
8219;SDS011;4151;51.110;7.020;2024-01-15T00:17:42;48.93;;;15.23;;
8219;SDS011;4151;51.110;7.020;2024-01-15T00:20:07;54.77;;;18.33;;
8219;SDS011;4151;51.110;7.020;2024-01-15T00:22:33;52.17;;;18.07;;
8219;SDS011;4151;51.110;7.020;2024-01-15T00:25:00;61.53;;;19.10;;
8219;SDS011;4151;51.110;7.020;2024-01-15T00:27:27;54.50;;;17.83;;
8219;SDS011;4151;51.110;7.020;2024-01-15T00:29:52;56.70;;;17.30;;
8219;SDS011;4151;51.110;7.020;2024-01-15T00:32:19;59.25;;;20.63;;
8219;SDS011;4151;51.110;7.020;2024-01-15T00:34:45;60.70;;;18.97;;
8219;SDS011;4151;51.110;7.020;2024-01-15T00:37:10;42.80;;;15.80;;
8219;SDS011;4151;51.110;7.020;2024-01-15T00:39:36;49.50;;;17.60;;
8219;SDS011;4151;51.110;7.020;2024-01-15T00:42:02;51.80;;;15.37;;
8219;SDS011;4151;51.110;7.020;2024-01-15T00:44:28;66.83;;;19.87;;
8219;SDS011;4151;51.110;7.020;2024-01-15T00:46:53;56.77;;;18.13;;
8219;SDS011;4151;51.110;7.020;2024-01-15T00:49:19;55.80;;;17.17;;
8219;SDS011;4151;51.110;7.020;2024-01-15T00:51:44;55.90;;;17.90;;
8219;SDS011;4151;51.110;7.020;2024-01-15T00:54:10;46.50;;;17.23;;
8219;SDS011;4151;51.110;7.020;2024-01-15T00:56:36;72.10;;;19.77;;
8219;SDS011;4151;51.110;7.020;2024-01-15T00:59:01;59.33;;;18.50;;
8219;SDS011;4151;51.110;7.020;2024-01-15T01:01:27;65.80;;;19.17;;
8219;SDS011;4151;51.110;7.020;2024-01-15T01:03:53;49.40;;;17.50;;
8219;SDS011;4151;51.110;7.020;2024-01-15T01:06:18;61.57;;;18.07;;
8219;SDS011;4151;51.110;7.020;2024-01-15T01:08:44;61.67;;;17.83;;
8219;SDS011;4151;51.110;7.020;2024-01-15T01:11:12;64.40;;;18.70;;
8219;SDS011;4151;51.110;7.020;2024-01-15T01:13:38;68.80;;;20.50;;
8219;SDS011;4151;51.110;7.020;2024-01-15T01:16:04;77.10;;;19.23;;
8219;SDS011;4151;51.110;7.020;2024-01-15T01:18:29;57.27;;;19.50;;
8219;SDS011;4151;51.110;7.020;2024-01-15T01:20:55;49.87;;;15.70;;
8219;SDS011;4151;51.110;7.020;2024-01-15T01:23:20;54.67;;;16.87;;
8219;SDS011;4151;51.110;7.020;2024-01-15T01:25:46;58.33;;;18.10;;
8219;SDS011;4151;51.110;7.020;2024-01-15T01:28:11;56.80;;;17.00;;
8219;SDS011;4151;51.110;7.020;2024-01-15T01:30:37;55.47;;;17.43;;
8219;SDS011;4151;51.110;7.020;2024-01-15T01:33:02;62.43;;;17.83;;
8219;SDS011;4151;51.110;7.020;2024-01-15T01:35:28;50.03;;;17.27;;
8219;SDS011;4151;51.110;7.020;2024-01-15T01:37:54;69.57;;;19.30;;
8219;SDS011;4151;51.110;7.020;2024-01-15T01:40:19;61.60;;;17.00;;
8219;SDS011;4151;51.110;7.020;2024-01-15T01:42:45;57.13;;;19.20;;
8219;SDS011;4151;51.110;7.020;2024-01-15T01:45:10;61.63;;;18.83;;
8219;SDS011;4151;51.110;7.020;2024-01-15T01:47:36;60.57;;;17.03;;
8219;SDS011;4151;51.110;7.020;2024-01-15T01:50:02;49.83;;;18.00;;
8219;SDS011;4151;51.110;7.020;2024-01-15T01:52:30;63.17;;;19.63;;
8219;SDS011;4151;51.110;7.020;2024-01-15T01:54:56;47.97;;;17.27;;
8219;SDS011;4151;51.110;7.020;2024-01-15T01:57:23;52.37;;;19.30;;
8219;SDS011;4151;51.110;7.020;2024-01-15T01:59:49;54.47;;;19.40;;
8219;SDS011;4151;51.110;7.020;2024-01-15T02:02:15;72.70;;;20.13;;
8219;SDS011;4151;51.110;7.020;2024-01-15T02:04:41;45.50;;;17.53;;
8219;SDS011;4151;51.110;7.020;2024-01-15T02:07:07;66.43;;;18.17;;
8219;SDS011;4151;51.110;7.020;2024-01-15T02:09:34;64.60;;;16.80;;
8219;SDS011;4151;51.110;7.020;2024-01-15T02:12:00;62.47;;;19.50;;
8219;SDS011;4151;51.110;7.020;2024-01-15T02:14:26;60.50;;;19.57;;
8219;SDS011;4151;51.110;7.020;2024-01-15T02:16:52;61.53;;;20.27;;
8219;SDS011;4151;51.110;7.020;2024-01-15T02:19:17;56.23;;;18.33;;
8219;SDS011;4151;51.110;7.020;2024-01-15T02:21:43;67.37;;;19.83;;
8219;SDS011;4151;51.110;7.020;2024-01-15T02:24:09;50.73;;;18.70;;
8219;SDS011;4151;51.110;7.020;2024-01-15T02:26:35;61.47;;;18.87;;
8219;SDS011;4151;51.110;7.020;2024-01-15T02:29:03;54.43;;;16.87;;
8219;SDS011;4151;51.110;7.020;2024-01-15T02:31:29;58.07;;;19.10;;
8219;SDS011;4151;51.110;7.020;2024-01-15T02:33:55;69.17;;;19.17;;
8219;SDS011;4151;51.110;7.020;2024-01-15T02:36:20;57.97;;;19.40;;
8219;SDS011;4151;51.110;7.020;2024-01-15T02:38:46;53.70;;;18.67;;
8219;SDS011;4151;51.110;7.020;2024-01-15T02:41:11;45.13;;;16.83;;
8219;SDS011;4151;51.110;7.020;2024-01-15T02:43:39;59.27;;;17.20;;
8219;SDS011;4151;51.110;7.020;2024-01-15T02:46:05;54.43;;;17.23;;
8219;SDS011;4151;51.110;7.020;2024-01-15T02:48:31;43.97;;;16.53;;
8219;SDS011;4151;51.110;7.020;2024-01-15T02:50:57;49.30;;;18.10;;
8219;SDS011;4151;51.110;7.020;2024-01-15T02:53:23;54.87;;;18.00;;
8219;SDS011;4151;51.110;7.020;2024-01-15T02:55:48;53.10;;;18.63;;
8219;SDS011;4151;51.110;7.020;2024-01-15T02:58:14;53.40;;;15.17;;
8219;SDS011;4151;51.110;7.020;2024-01-15T03:00:40;57.83;;;16.63;;
8219;SDS011;4151;51.110;7.020;2024-01-15T03:03:05;50.23;;;16.97;;
8219;SDS011;4151;51.110;7.020;2024-01-15T03:05:31;49.90;;;16.80;;
8219;SDS011;4151;51.110;7.020;2024-01-15T03:07:56;53.07;;;16.90;;
8219;SDS011;4151;51.110;7.020;2024-01-15T03:10:22;51.83;;;17.93;;
8219;SDS011;4151;51.110;7.020;2024-01-15T03:12:47;41.53;;;15.47;;
8219;SDS011;4151;51.110;7.020;2024-01-15T03:15:13;50.17;;;17.97;;
8219;SDS011;4151;51.110;7.020;2024-01-15T03:17:38;59.33;;;16.97;;
8219;SDS011;4151;51.110;7.020;2024-01-15T03:20:06;49.70;;;16.13;;
8219;SDS011;4151;51.110;7.020;2024-01-15T03:22:32;56.60;;;17.53;;
8219;SDS011;4151;51.110;7.020;2024-01-15T03:24:57;46.67;;;14.90;;
8219;SDS011;4151;51.110;7.020;2024-01-15T03:27:23;50.23;;;18.50;;
8219;SDS011;4151;51.110;7.020;2024-01-15T03:29:48;34.67;;;15.17;;
8219;SDS011;4151;51.110;7.020;2024-01-15T03:32:14;46.83;;;15.00;;
8219;SDS011;4151;51.110;7.020;2024-01-15T03:34:41;52.70;;;17.73;;
8219;SDS011;4151;51.110;7.020;2024-01-15T03:37:06;39.20;;;12.87;;
8219;SDS011;4151;51.110;7.020;2024-01-15T03:39:32;40.47;;;14.80;;
8219;SDS011;4151;51.110;7.020;2024-01-15T03:41:57;39.30;;;14.47;;
8219;SDS011;4151;51.110;7.020;2024-01-15T03:44:23;41.97;;;15.10;;
8219;SDS011;4151;51.110;7.020;2024-01-15T03:46:48;30.70;;;13.30;;
8219;SDS011;4151;51.110;7.020;2024-01-15T03:49:14;29.33;;;12.27;;
8219;SDS011;4151;51.110;7.020;2024-01-15T03:51:39;43.70;;;16.10;;
8219;SDS011;4151;51.110;7.020;2024-01-15T03:54:05;44.73;;;13.60;;
8219;SDS011;4151;51.110;7.020;2024-01-15T03:56:31;49.43;;;16.33;;
8219;SDS011;4151;51.110;7.020;2024-01-15T03:58:57;51.50;;;14.40;;
8219;SDS011;4151;51.110;7.020;2024-01-15T04:01:22;37.90;;;13.67;;
8219;SDS011;4151;51.110;7.020;2024-01-15T04:03:48;36.87;;;13.30;;
8219;SDS011;4151;51.110;7.020;2024-01-15T04:06:13;34.67;;;13.47;;
8219;SDS011;4151;51.110;7.020;2024-01-15T04:08:39;33.73;;;11.87;;
8219;SDS011;4151;51.110;7.020;2024-01-15T04:11:04;37.83;;;12.87;;
8219;SDS011;4151;51.110;7.020;2024-01-15T04:13:33;42.80;;;13.83;;
8219;SDS011;4151;51.110;7.020;2024-01-15T04:15:59;32.87;;;13.20;;
8219;SDS011;4151;51.110;7.020;2024-01-15T04:18:25;37.87;;;14.33;;
8219;SDS011;4151;51.110;7.020;2024-01-15T04:20:51;40.33;;;13.03;;
8219;SDS011;4151;51.110;7.020;2024-01-15T04:23:16;57.17;;;16.40;;
8219;SDS011;4151;51.110;7.020;2024-01-15T04:25:42;34.67;;;12.97;;
8219;SDS011;4151;51.110;7.020;2024-01-15T04:28:08;42.60;;;14.93;;
8219;SDS011;4151;51.110;7.020;2024-01-15T04:30:34;32.73;;;12.60;;
8219;SDS011;4151;51.110;7.020;2024-01-15T04:33:00;40.47;;;14.00;;
8219;SDS011;4151;51.110;7.020;2024-01-15T04:35:25;43.33;;;12.60;;
8219;SDS011;4151;51.110;7.020;2024-01-15T04:37:51;40.40;;;14.27;;
8219;SDS011;4151;51.110;7.020;2024-01-15T04:40:17;30.13;;;14.00;;
8219;SDS011;4151;51.110;7.020;2024-01-15T04:42:42;39.10;;;13.60;;
8219;SDS011;4151;51.110;7.020;2024-01-15T04:45:10;35.60;;;11.60;;
8219;SDS011;4151;51.110;7.020;2024-01-15T04:47:36;44.87;;;13.57;;
8219;SDS011;4151;51.110;7.020;2024-01-15T04:50:02;33.30;;;13.23;;
8219;SDS011;4151;51.110;7.020;2024-01-15T04:52:28;40.33;;;13.17;;
8219;SDS011;4151;51.110;7.020;2024-01-15T04:54:54;39.20;;;13.40;;
8219;SDS011;4151;51.110;7.020;2024-01-15T04:57:19;37.27;;;11.93;;
8219;SDS011;4151;51.110;7.020;2024-01-15T04:59:45;34.57;;;13.00;;
8219;SDS011;4151;51.110;7.020;2024-01-15T05:02:10;34.37;;;12.90;;
8219;SDS011;4151;51.110;7.020;2024-01-15T05:04:36;31.80;;;11.47;;
8219;SDS011;4151;51.110;7.020;2024-01-15T05:07:02;37.37;;;11.63;;
8219;SDS011;4151;51.110;7.020;2024-01-15T05:09:27;25.47;;;10.10;;
8219;SDS011;4151;51.110;7.020;2024-01-15T05:11:53;28.80;;;11.00;;
8219;SDS011;4151;51.110;7.020;2024-01-15T05:14:19;35.97;;;11.33;;
8219;SDS011;4151;51.110;7.020;2024-01-15T05:16:48;39.00;;;11.30;;
8219;SDS011;4151;51.110;7.020;2024-01-15T05:19:14;22.63;;;10.00;;
8219;SDS011;4151;51.110;7.020;2024-01-15T05:21:39;28.63;;;10.80;;
8219;SDS011;4151;51.110;7.020;2024-01-15T05:24:05;27.73;;;11.33;;
8219;SDS011;4151;51.110;7.020;2024-01-15T05:26:31;35.53;;;12.57;;
8219;SDS011;4151;51.110;7.020;2024-01-15T05:28:56;32.03;;;11.57;;
8219;SDS011;4151;51.110;7.020;2024-01-15T05:31:22;27.40;;;9.93;;
8219;SDS011;4151;51.110;7.020;2024-01-15T05:33:47;25.73;;;9.50;;
8219;SDS011;4151;51.110;7.020;2024-01-15T05:36:13;23.87;;;9.30;;
8219;SDS011;4151;51.110;7.020;2024-01-15T05:38:39;33.70;;;10.77;;
8219;SDS011;4151;51.110;7.020;2024-01-15T05:41:05;25.60;;;9.93;;
8219;SDS011;4151;51.110;7.020;2024-01-15T05:43:30;28.17;;;9.83;;
8219;SDS011;4151;51.110;7.020;2024-01-15T05:45:56;25.43;;;9.00;;
8219;SDS011;4151;51.110;7.020;2024-01-15T05:48:22;29.83;;;8.97;;
8219;SDS011;4151;51.110;7.020;2024-01-15T05:50:47;27.77;;;9.53;;
8219;SDS011;4151;51.110;7.020;2024-01-15T05:53:13;26.00;;;8.13;;
8219;SDS011;4151;51.110;7.020;2024-01-15T05:55:39;19.40;;;8.60;;
8219;SDS011;4151;51.110;7.020;2024-01-15T05:58:05;23.63;;;8.67;;
8219;SDS011;4151;51.110;7.020;2024-01-15T06:00:30;23.53;;;9.30;;
8219;SDS011;4151;51.110;7.020;2024-01-15T06:02:58;18.40;;;7.80;;
8219;SDS011;4151;51.110;7.020;2024-01-15T06:05:24;28.27;;;9.57;;
8219;SDS011;4151;51.110;7.020;2024-01-15T06:07:50;22.90;;;9.33;;
8219;SDS011;4151;51.110;7.020;2024-01-15T06:10:15;16.70;;;8.53;;
8219;SDS011;4151;51.110;7.020;2024-01-15T06:12:42;24.10;;;8.73;;
8219;SDS011;4151;51.110;7.020;2024-01-15T06:15:08;27.10;;;8.87;;
8219;SDS011;4151;51.110;7.020;2024-01-15T06:17:34;21.70;;;8.53;;
8219;SDS011;4151;51.110;7.020;2024-01-15T06:19:59;26.57;;;9.27;;
8219;SDS011;4151;51.110;7.020;2024-01-15T06:22:25;18.53;;;8.13;;
8219;SDS011;4151;51.110;7.020;2024-01-15T06:24:50;25.90;;;9.50;;
8219;SDS011;4151;51.110;7.020;2024-01-15T06:27:16;23.93;;;8.23;;
8219;SDS011;4151;51.110;7.020;2024-01-15T06:29:44;30.87;;;9.73;;
8219;SDS011;4151;51.110;7.020;2024-01-15T06:32:11;22.47;;;8.30;;
8219;SDS011;4151;51.110;7.020;2024-01-15T06:34:37;21.43;;;7.83;;
8219;SDS011;4151;51.110;7.020;2024-01-15T06:37:02;23.70;;;9.00;;
8219;SDS011;4151;51.110;7.020;2024-01-15T06:39:28;18.13;;;7.70;;
8219;SDS011;4151;51.110;7.020;2024-01-15T06:41:54;17.83;;;7.20;;
8219;SDS011;4151;51.110;7.020;2024-01-15T06:44:19;26.37;;;8.40;;
8219;SDS011;4151;51.110;7.020;2024-01-15T06:46:46;18.43;;;7.10;;
8219;SDS011;4151;51.110;7.020;2024-01-15T06:49:12;18.20;;;8.23;;
8219;SDS011;4151;51.110;7.020;2024-01-15T06:51:38;17.30;;;8.90;;
8219;SDS011;4151;51.110;7.020;2024-01-15T06:54:04;18.57;;;7.97;;
8219;SDS011;4151;51.110;7.020;2024-01-15T06:56:29;19.93;;;9.20;;
8219;SDS011;4151;51.110;7.020;2024-01-15T06:58:56;12.17;;;6.03;;
8219;SDS011;4151;51.110;7.020;2024-01-15T07:01:21;15.10;;;6.67;;
8219;SDS011;4151;51.110;7.020;2024-01-15T07:03:47;14.13;;;6.60;;
8219;SDS011;4151;51.110;7.020;2024-01-15T07:06:12;22.60;;;7.33;;
8219;SDS011;4151;51.110;7.020;2024-01-15T07:08:39;20.63;;;7.90;;
8219;SDS011;4151;51.110;7.020;2024-01-15T07:11:05;23.00;;;8.40;;
8219;SDS011;4151;51.110;7.020;2024-01-15T07:13:31;22.67;;;8.13;;
8219;SDS011;4151;51.110;7.020;2024-01-15T07:15:57;17.50;;;8.23;;
8219;SDS011;4151;51.110;7.020;2024-01-15T07:18:22;20.23;;;8.67;;
8219;SDS011;4151;51.110;7.020;2024-01-15T07:20:48;27.93;;;9.53;;
8219;SDS011;4151;51.110;7.020;2024-01-15T07:23:14;20.43;;;10.00;;
8219;SDS011;4151;51.110;7.020;2024-01-15T07:25:40;22.23;;;9.80;;
8219;SDS011;4151;51.110;7.020;2024-01-15T07:28:05;23.23;;;9.83;;
8219;SDS011;4151;51.110;7.020;2024-01-15T07:30:31;23.70;;;8.53;;
8219;SDS011;4151;51.110;7.020;2024-01-15T07:32:56;22.13;;;9.40;;
8219;SDS011;4151;51.110;7.020;2024-01-15T07:35:22;30.67;;;10.93;;
8219;SDS011;4151;51.110;7.020;2024-01-15T07:37:47;24.27;;;9.80;;
8219;SDS011;4151;51.110;7.020;2024-01-15T07:40:13;21.60;;;9.90;;
8219;SDS011;4151;51.110;7.020;2024-01-15T07:42:38;22.30;;;9.73;;
8219;SDS011;4151;51.110;7.020;2024-01-15T07:45:05;23.47;;;9.80;;
8219;SDS011;4151;51.110;7.020;2024-01-15T07:47:31;17.77;;;8.83;;
8219;SDS011;4151;51.110;7.020;2024-01-15T07:49:56;29.83;;;9.23;;
8219;SDS011;4151;51.110;7.020;2024-01-15T07:52:22;30.40;;;10.70;;
8219;SDS011;4151;51.110;7.020;2024-01-15T07:54:48;22.37;;;9.33;;
8219;SDS011;4151;51.110;7.020;2024-01-15T07:57:13;17.93;;;9.00;;
8219;SDS011;4151;51.110;7.020;2024-01-15T07:59:39;27.23;;;10.33;;
8219;SDS011;4151;51.110;7.020;2024-01-15T08:02:05;30.43;;;9.80;;
8219;SDS011;4151;51.110;7.020;2024-01-15T08:04:31;25.90;;;11.17;;
8219;SDS011;4151;51.110;7.020;2024-01-15T08:06:56;23.37;;;10.50;;
8219;SDS011;4151;51.110;7.020;2024-01-15T08:09:22;25.47;;;10.77;;
8219;SDS011;4151;51.110;7.020;2024-01-15T08:11:47;18.43;;;10.07;;
8219;SDS011;4151;51.110;7.020;2024-01-15T08:14:14;27.93;;;10.60;;
8219;SDS011;4151;51.110;7.020;2024-01-15T08:16:40;24.37;;;10.30;;
8219;SDS011;4151;51.110;7.020;2024-01-15T08:19:05;21.83;;;9.87;;
8219;SDS011;4151;51.110;7.020;2024-01-15T08:21:31;28.30;;;11.53;;
8219;SDS011;4151;51.110;7.020;2024-01-15T08:23:57;37.57;;;12.90;;
8219;SDS011;4151;51.110;7.020;2024-01-15T08:26:29;45.43;;;14.43;;
8219;SDS011;4151;51.110;7.020;2024-01-15T08:28:55;92.97;;;33.77;;
8219;SDS011;4151;51.110;7.020;2024-01-15T08:31:21;32.37;;;12.70;;
8219;SDS011;4151;51.110;7.020;2024-01-15T08:33:47;30.73;;;13.70;;
8219;SDS011;4151;51.110;7.020;2024-01-15T08:36:12;36.83;;;13.23;;
8219;SDS011;4151;51.110;7.020;2024-01-15T08:38:38;28.90;;;12.47;;
8219;SDS011;4151;51.110;7.020;2024-01-15T08:41:04;32.47;;;13.80;;
8219;SDS011;4151;51.110;7.020;2024-01-15T08:43:29;34.03;;;13.70;;
8219;SDS011;4151;51.110;7.020;2024-01-15T08:45:58;32.37;;;11.33;;
8219;SDS011;4151;51.110;7.020;2024-01-15T08:48:24;31.83;;;12.60;;
8219;SDS011;4151;51.110;7.020;2024-01-15T08:50:52;35.10;;;11.17;;
8219;SDS011;4151;51.110;7.020;2024-01-15T08:53:18;24.77;;;11.43;;
8219;SDS011;4151;51.110;7.020;2024-01-15T08:55:44;19.83;;;9.30;;
8219;SDS011;4151;51.110;7.020;2024-01-15T08:58:09;30.47;;;11.23;;
8219;SDS011;4151;51.110;7.020;2024-01-15T09:00:35;28.13;;;10.90;;
8219;SDS011;4151;51.110;7.020;2024-01-15T09:03:01;33.07;;;13.20;;
8219;SDS011;4151;51.110;7.020;2024-01-15T09:05:27;34.17;;;11.63;;
8219;SDS011;4151;51.110;7.020;2024-01-15T09:07:53;27.07;;;11.20;;
8219;SDS011;4151;51.110;7.020;2024-01-15T09:10:19;32.70;;;11.23;;
8219;SDS011;4151;51.110;7.020;2024-01-15T09:12:45;20.27;;;10.37;;
8219;SDS011;4151;51.110;7.020;2024-01-15T09:15:10;19.07;;;9.70;;
8219;SDS011;4151;51.110;7.020;2024-01-15T09:17:36;27.70;;;12.87;;
8219;SDS011;4151;51.110;7.020;2024-01-15T09:20:01;28.43;;;11.67;;
8219;SDS011;4151;51.110;7.020;2024-01-15T09:22:29;35.30;;;13.23;;
8219;SDS011;4151;51.110;7.020;2024-01-15T09:24:55;29.33;;;11.60;;
8219;SDS011;4151;51.110;7.020;2024-01-15T09:27:20;24.87;;;9.83;;
8219;SDS011;4151;51.110;7.020;2024-01-15T09:29:46;33.73;;;13.33;;
8219;SDS011;4151;51.110;7.020;2024-01-15T09:32:12;29.63;;;13.80;;
8219;SDS011;4151;51.110;7.020;2024-01-15T09:34:37;33.83;;;13.53;;
8219;SDS011;4151;51.110;7.020;2024-01-15T09:37:03;33.03;;;14.40;;
8219;SDS011;4151;51.110;7.020;2024-01-15T09:39:29;34.93;;;14.40;;
8219;SDS011;4151;51.110;7.020;2024-01-15T09:41:55;35.13;;;15.70;;
8219;SDS011;4151;51.110;7.020;2024-01-15T09:44:22;49.90;;;14.73;;
8219;SDS011;4151;51.110;7.020;2024-01-15T09:46:48;37.43;;;13.67;;
8219;SDS011;4151;51.110;7.020;2024-01-15T09:49:15;44.67;;;16.37;;
8219;SDS011;4151;51.110;7.020;2024-01-15T09:51:41;43.40;;;14.23;;
8219;SDS011;4151;51.110;7.020;2024-01-15T09:54:07;36.80;;;15.97;;
8219;SDS011;4151;51.110;7.020;2024-01-15T09:56:33;40.40;;;16.23;;
8219;SDS011;4151;51.110;7.020;2024-01-15T09:59:00;45.10;;;16.97;;
8219;SDS011;4151;51.110;7.020;2024-01-15T10:01:26;39.40;;;16.07;;
8219;SDS011;4151;51.110;7.020;2024-01-15T10:03:51;29.27;;;13.47;;
8219;SDS011;4151;51.110;7.020;2024-01-15T10:06:18;28.57;;;13.43;;
8219;SDS011;4151;51.110;7.020;2024-01-15T10:08:47;38.90;;;13.83;;
8219;SDS011;4151;51.110;7.020;2024-01-15T10:11:14;39.63;;;15.30;;
8219;SDS011;4151;51.110;7.020;2024-01-15T10:13:39;34.40;;;13.67;;
8219;SDS011;4151;51.110;7.020;2024-01-15T10:16:05;29.10;;;13.50;;
8219;SDS011;4151;51.110;7.020;2024-01-15T10:18:31;28.47;;;11.20;;
8219;SDS011;4151;51.110;7.020;2024-01-15T10:20:57;36.03;;;16.13;;
8219;SDS011;4151;51.110;7.020;2024-01-15T10:23:24;33.50;;;12.80;;
8219;SDS011;4151;51.110;7.020;2024-01-15T10:25:49;26.13;;;12.00;;
8219;SDS011;4151;51.110;7.020;2024-01-15T10:28:16;29.13;;;12.00;;
8219;SDS011;4151;51.110;7.020;2024-01-15T10:30:44;27.90;;;12.10;;
8219;SDS011;4151;51.110;7.020;2024-01-15T10:33:10;21.80;;;9.80;;
8219;SDS011;4151;51.110;7.020;2024-01-15T10:35:36;22.87;;;10.60;;
8219;SDS011;4151;51.110;7.020;2024-01-15T10:38:02;25.10;;;9.70;;
8219;SDS011;4151;51.110;7.020;2024-01-15T10:40:30;20.23;;;9.03;;
8219;SDS011;4151;51.110;7.020;2024-01-15T10:42:56;21.57;;;10.07;;
8219;SDS011;4151;51.110;7.020;2024-01-15T10:45:22;23.03;;;8.87;;
8219;SDS011;4151;51.110;7.020;2024-01-15T10:47:48;19.90;;;9.03;;
8219;SDS011;4151;51.110;7.020;2024-01-15T10:50:14;23.90;;;8.13;;
8219;SDS011;4151;51.110;7.020;2024-01-15T10:52:41;22.73;;;9.03;;
8219;SDS011;4151;51.110;7.020;2024-01-15T10:55:08;17.43;;;8.37;;
8219;SDS011;4151;51.110;7.020;2024-01-15T10:57:35;15.07;;;7.17;;
8219;SDS011;4151;51.110;7.020;2024-01-15T11:00:04;24.57;;;9.63;;
8219;SDS011;4151;51.110;7.020;2024-01-15T11:02:31;19.67;;;7.70;;
8219;SDS011;4151;51.110;7.020;2024-01-15T11:04:59;17.40;;;8.33;;
8219;SDS011;4151;51.110;7.020;2024-01-15T11:07:25;22.30;;;8.47;;
8219;SDS011;4151;51.110;7.020;2024-01-15T11:09:51;13.43;;;7.23;;
8219;SDS011;4151;51.110;7.020;2024-01-15T11:12:17;16.80;;;6.93;;
8219;SDS011;4151;51.110;7.020;2024-01-15T11:14:48;19.00;;;6.43;;
8219;SDS011;4151;51.110;7.020;2024-01-15T11:17:15;14.97;;;7.90;;
8219;SDS011;4151;51.110;7.020;2024-01-15T11:22:11;15.37;;;6.63;;
8219;SDS011;4151;51.110;7.020;2024-01-15T11:25:02;18.70;;;8.00;;
8219;SDS011;4151;51.110;7.020;2024-01-15T11:30:10;16.73;;;7.73;;
8219;SDS011;4151;51.110;7.020;2024-01-15T11:32:37;14.47;;;6.67;;
8219;SDS011;4151;51.110;7.020;2024-01-15T11:35:06;15.37;;;5.60;;
8219;SDS011;4151;51.110;7.020;2024-01-15T11:40:35;12.13;;;5.33;;
8219;SDS011;4151;51.110;7.020;2024-01-15T11:43:07;11.60;;;5.80;;
8219;SDS011;4151;51.110;7.020;2024-01-15T11:45:34;11.13;;;5.90;;
8219;SDS011;4151;51.110;7.020;2024-01-15T11:50:40;63.10;;;23.87;;
8219;SDS011;4151;51.110;7.020;2024-01-15T11:55:57;16.50;;;6.43;;
8219;SDS011;4151;51.110;7.020;2024-01-15T11:58:24;11.50;;;4.90;;
8219;SDS011;4151;51.110;7.020;2024-01-15T12:00:51;15.23;;;5.60;;
8219;SDS011;4151;51.110;7.020;2024-01-15T12:03:17;10.20;;;5.23;;
8219;SDS011;4151;51.110;7.020;2024-01-15T12:05:45;9.37;;;4.77;;
8219;SDS011;4151;51.110;7.020;2024-01-15T12:08:11;8.83;;;4.93;;
8219;SDS011;4151;51.110;7.020;2024-01-15T12:10:37;8.77;;;5.07;;
8219;SDS011;4151;51.110;7.020;2024-01-15T12:15:31;6.97;;;4.13;;
8219;SDS011;4151;51.110;7.020;2024-01-15T12:17:58;9.43;;;4.50;;
8219;SDS011;4151;51.110;7.020;2024-01-15T12:20:25;9.90;;;4.77;;
8219;SDS011;4151;51.110;7.020;2024-01-15T12:22:51;11.80;;;4.47;;
8219;SDS011;4151;51.110;7.020;2024-01-15T12:25:17;13.13;;;6.00;;
8219;SDS011;4151;51.110;7.020;2024-01-15T12:27:43;12.43;;;4.83;;
8219;SDS011;4151;51.110;7.020;2024-01-15T12:30:12;10.60;;;5.40;;
8219;SDS011;4151;51.110;7.020;2024-01-15T12:32:39;9.90;;;4.93;;
8219;SDS011;4151;51.110;7.020;2024-01-15T12:35:06;19.97;;;6.70;;
8219;SDS011;4151;51.110;7.020;2024-01-15T12:37:34;13.40;;;7.40;;
8219;SDS011;4151;51.110;7.020;2024-01-15T12:40:01;14.30;;;6.77;;
8219;SDS011;4151;51.110;7.020;2024-01-15T12:42:27;15.10;;;7.93;;
8219;SDS011;4151;51.110;7.020;2024-01-15T12:44:56;24.53;;;6.83;;
8219;SDS011;4151;51.110;7.020;2024-01-15T12:47:22;11.17;;;6.80;;
8219;SDS011;4151;51.110;7.020;2024-01-15T12:49:47;16.53;;;7.60;;
8219;SDS011;4151;51.110;7.020;2024-01-15T12:52:15;12.07;;;6.70;;
8219;SDS011;4151;51.110;7.020;2024-01-15T12:54:43;22.10;;;9.03;;
8219;SDS011;4151;51.110;7.020;2024-01-15T12:57:09;14.10;;;6.97;;
8219;SDS011;4151;51.110;7.020;2024-01-15T12:59:34;18.87;;;7.53;;
8219;SDS011;4151;51.110;7.020;2024-01-15T13:02:00;14.53;;;7.90;;
8219;SDS011;4151;51.110;7.020;2024-01-15T13:04:25;19.20;;;7.17;;
8219;SDS011;4151;51.110;7.020;2024-01-15T13:06:51;15.90;;;7.40;;
8219;SDS011;4151;51.110;7.020;2024-01-15T13:09:17;14.97;;;7.27;;
8219;SDS011;4151;51.110;7.020;2024-01-15T13:11:46;12.73;;;6.37;;
8219;SDS011;4151;51.110;7.020;2024-01-15T13:14:12;13.23;;;6.60;;
8219;SDS011;4151;51.110;7.020;2024-01-15T13:16:40;20.00;;;6.30;;
8219;SDS011;4151;51.110;7.020;2024-01-15T13:19:07;12.50;;;6.10;;
8219;SDS011;4151;51.110;7.020;2024-01-15T13:21:33;17.40;;;5.87;;
8219;SDS011;4151;51.110;7.020;2024-01-15T13:23:59;19.87;;;6.67;;
8219;SDS011;4151;51.110;7.020;2024-01-15T13:26:24;10.87;;;6.20;;
8219;SDS011;4151;51.110;7.020;2024-01-15T13:28:50;8.97;;;4.63;;
8219;SDS011;4151;51.110;7.020;2024-01-15T13:31:16;17.20;;;6.73;;
8219;SDS011;4151;51.110;7.020;2024-01-15T13:33:41;13.30;;;4.97;;
8219;SDS011;4151;51.110;7.020;2024-01-15T13:36:07;18.27;;;5.20;;
8219;SDS011;4151;51.110;7.020;2024-01-15T13:38:35;13.03;;;5.10;;
8219;SDS011;4151;51.110;7.020;2024-01-15T13:41:02;9.07;;;4.67;;
8219;SDS011;4151;51.110;7.020;2024-01-15T13:43:29;5.73;;;4.70;;
8219;SDS011;4151;51.110;7.020;2024-01-15T13:45:55;14.03;;;4.80;;
8219;SDS011;4151;51.110;7.020;2024-01-15T13:48:20;18.23;;;5.00;;
8219;SDS011;4151;51.110;7.020;2024-01-15T13:50:46;8.93;;;4.27;;
8219;SDS011;4151;51.110;7.020;2024-01-15T13:53:11;16.87;;;5.37;;
8219;SDS011;4151;51.110;7.020;2024-01-15T13:55:37;10.27;;;4.60;;
8219;SDS011;4151;51.110;7.020;2024-01-15T13:58:02;6.97;;;4.30;;
8219;SDS011;4151;51.110;7.020;2024-01-15T14:00:30;7.50;;;3.83;;
8219;SDS011;4151;51.110;7.020;2024-01-15T14:02:56;7.20;;;3.73;;
8219;SDS011;4151;51.110;7.020;2024-01-15T14:05:22;12.03;;;3.10;;
8219;SDS011;4151;51.110;7.020;2024-01-15T14:07:48;4.60;;;3.57;;
8219;SDS011;4151;51.110;7.020;2024-01-15T14:10:14;4.60;;;2.87;;
8219;SDS011;4151;51.110;7.020;2024-01-15T14:12:39;7.33;;;3.73;;
8219;SDS011;4151;51.110;7.020;2024-01-15T14:15:05;4.43;;;3.27;;
8219;SDS011;4151;51.110;7.020;2024-01-15T14:17:31;6.93;;;3.73;;
8219;SDS011;4151;51.110;7.020;2024-01-15T14:19:57;6.53;;;4.27;;
8219;SDS011;4151;51.110;7.020;2024-01-15T14:22:23;5.70;;;4.17;;
8219;SDS011;4151;51.110;7.020;2024-01-15T14:24:48;7.53;;;3.70;;
8219;SDS011;4151;51.110;7.020;2024-01-15T14:27:14;10.37;;;4.57;;
8219;SDS011;4151;51.110;7.020;2024-01-15T14:29:40;6.47;;;4.47;;
8219;SDS011;4151;51.110;7.020;2024-01-15T14:32:06;7.00;;;4.00;;
8219;SDS011;4151;51.110;7.020;2024-01-15T14:34:31;6.37;;;3.20;;
8219;SDS011;4151;51.110;7.020;2024-01-15T14:36:57;7.20;;;3.60;;
8219;SDS011;4151;51.110;7.020;2024-01-15T14:39:23;6.77;;;3.67;;
8219;SDS011;4151;51.110;7.020;2024-01-15T14:41:48;4.50;;;3.13;;
8219;SDS011;4151;51.110;7.020;2024-01-15T14:44:14;6.67;;;2.90;;
8219;SDS011;4151;51.110;7.020;2024-01-15T14:46:40;6.90;;;2.63;;
8219;SDS011;4151;51.110;7.020;2024-01-15T14:49:05;4.03;;;3.00;;
8219;SDS011;4151;51.110;7.020;2024-01-15T14:51:31;13.00;;;2.87;;
8219;SDS011;4151;51.110;7.020;2024-01-15T14:53:57;10.90;;;3.10;;
8219;SDS011;4151;51.110;7.020;2024-01-15T14:56:23;5.00;;;2.90;;
8219;SDS011;4151;51.110;7.020;2024-01-15T14:58:48;3.80;;;2.63;;
8219;SDS011;4151;51.110;7.020;2024-01-15T15:01:14;3.13;;;2.47;;
8219;SDS011;4151;51.110;7.020;2024-01-15T15:03:40;3.57;;;2.83;;